Time;durP1;ratioP1;P1;durP2;ratioP2;P2;SDS_P1;SDS_P2;PMS_P1;PMS_P2;Temp;Humidity;BMP_temperature;BMP_pressure;BME280_temperature;BME280_humidity;BME280_pressure;Samples;Min_cycle;Max_cycle;Signal;HPM_P1;HPM_P2
2022/07/08 06:46:13;;;;;;;3.63;1.10;;;;;;;18.73;51.91;100273.81;5169194;27;20045;-80
2022/07/08 06:48:40;;;;;;;5.45;1.23;;;;;;;19.13;49.56;100259.19;5106783;27;1917687;-80
2022/07/08 06:51:07;;;;;;;3.33;0.90;;;;;;;19.31;49.10;100266.78;5147253;27;20051;-80
2022/07/08 06:56:13;;;;;;;3.65;1.05;;;;;;;19.48;49.16;100263.56;5148686;27;20078;-79
2022/07/08 06:58:40;;;;;;;7.50;1.23;;;;;;;19.63;48.37;100269.66;5149339;27;20368;-79
2022/07/08 07:01:06;;;;;;;7.40;1.38;;;;;;;19.77;47.82;100253.91;5141701;27;20053;-80
2022/07/08 07:03:34;;;;;;;4.57;1.10;;;;;;;19.63;48.12;100269.66;5148244;27;20039;-80
2022/07/08 07:06:01;;;;;;;3.92;1.45;;;;;;;19.23;49.54;100275.28;5142121;27;20131;-80
2022/07/08 07:08:27;;;;;;;11.40;1.63;;;;;;;19.63;47.50;100253.09;5141361;27;20043;-81
2022/07/08 07:10:54;;;;;;;3.00;1.70;;;;;;;19.99;46.59;100271.00;5149234;27;20043;-81
2022/07/08 07:13:21;;;;;;;7.70;1.67;;;;;;;19.49;48.07;100260.56;5148594;27;20429;-80
2022/07/08 07:15:47;;;;;;;17.98;2.75;;;;;;;19.35;48.65;100286.50;5149344;27;20047;-79
2022/07/08 07:18:14;;;;;;;7.47;1.55;;;;;;;19.31;46.53;100272.28;5143852;27;20078;-80
2022/07/08 07:20:42;;;;;;;5.28;1.25;;;;;;;19.64;47.03;100276.88;5142915;27;20047;-80
2022/07/08 07:23:08;;;;;;;11.48;2.88;;;;;;;19.46;47.06;100285.84;5148262;27;20054;-80
2022/07/08 07:25:35;;;;;;;7.97;1.25;;;;;;;18.28;50.54;100275.47;5149087;27;20437;-80
2022/07/08 07:28:02;;;;;;;24.50;3.00;;;;;;;18.91;50.15;100295.25;5148843;27;20051;-80
2022/07/08 07:30:28;;;;;;;5.95;1.70;;;;;;;19.65;48.12;100275.81;5147479;27;20047;-80
2022/07/08 07:32:55;;;;;;;4.00;1.35;;;;;;;19.91;46.43;100283.16;5146924;27;20524;-80
2022/07/08 07:35:21;;;;;;;9.88;1.92;;;;;;;20.27;45.88;100259.59;5143265;27;20053;-80
2022/07/08 07:37:49;;;;;;;8.05;1.35;;;;;;;20.55;43.10;100288.75;5148639;27;20055;-80
2022/07/08 07:40:16;;;;;;;11.32;2.95;;;;;;;20.58;40.19;100277.25;5148865;27;20051;-81
2022/07/08 07:42:42;;;;;;;7.25;1.40;;;;;;;20.34;43.17;100290.78;5147684;27;20057;-81
2022/07/08 07:45:09;;;;;;;4.57;1.13;;;;;;;19.74;45.16;100284.69;5148306;27;20513;-81
2022/07/08 07:47:36;;;;;;;7.78;3.05;;;;;;;19.24;47.46;100280.59;5146687;27;20043;-79
2022/07/08 07:50:03;;;;;;;7.80;1.33;;;;;;;19.25;46.97;100274.03;5148322;27;20039;-80
2022/07/08 07:52:29;;;;;;;2.90;0.90;;;;;;;19.56;46.43;100280.72;5140968;27;20058;-80
2022/07/08 07:54:57;;;;;;;8.23;1.20;;;;;;;19.64;44.01;100288.75;5134336;27;20043;-80
2022/07/08 07:57:24;;;;;;;6.30;1.27;;;;;;;19.17;43.76;100273.41;5134520;27;20062;-80
2022/07/08 07:59:50;;;;;;;3.85;1.13;;;;;;;18.86;45.28;100277.66;5134455;27;20051;-79
2022/07/08 08:02:17;;;;;;;6.25;0.90;;;;;;;18.86;45.59;100280.41;5131461;27;20054;-78
2022/07/08 08:04:45;;;;;;;5.38;1.40;;;;;;;18.55;48.39;100288.19;5134443;27;20047;-80
2022/07/08 08:07:11;;;;;;;6.13;1.20;;;;;;;18.32;49.12;100287.72;5134171;27;20055;-81
2022/07/08 08:09:38;;;;;;;7.55;1.40;;;;;;;17.96;50.59;100300.75;5131171;27;20058;-80
2022/07/08 08:12:07;;;;;;;4.45;1.33;;;;;;;18.02;50.13;100301.81;5133278;27;20039;-80
2022/07/08 08:14:33;;;;;;;5.22;0.95;;;;;;;17.83;49.56;100301.50;5134297;27;20050;-80
2022/07/08 08:17:00;;;;;;;4.78;1.00;;;;;;;18.32;49.41;100293.22;5124782;27;20493;-80
2022/07/08 08:19:26;;;;;;;8.13;0.98;;;;;;;18.57;48.17;100304.50;5134284;27;20047;-79
2022/07/08 08:21:53;;;;;;;2.28;0.90;;;;;;;18.96;46.55;100297.34;5134139;27;20043;-80
2022/07/08 08:24:19;;;;;;;4.15;1.13;;;;;;;19.02;47.45;100290.16;5133442;27;20047;-80
2022/07/08 08:26:47;;;;;;;4.65;1.13;;;;;;;19.32;45.15;100303.50;5129943;27;20167;-80
2022/07/08 08:29:15;;;;;;;5.15;1.20;;;;;;;19.42;43.82;100287.31;5124939;27;20144;-79
2022/07/08 08:31:42;;;;;;;4.32;0.93;;;;;;;20.03;44.43;100293.53;5134162;27;20213;-79
2022/07/08 08:34:09;;;;;;;2.58;0.63;;;;;;;20.49;42.98;100278.59;5133207;27;20055;-81
2022/07/08 08:36:35;;;;;;;2.58;0.90;;;;;;;20.75;42.33;100279.50;5129262;27;20043;-81
2022/07/08 08:39:02;;;;;;;7.57;1.33;;;;;;;20.86;40.66;100287.88;5133655;27;20058;-80
2022/07/08 08:41:30;;;;;;;4.60;0.90;;;;;;;21.09;42.62;100296.63;5127503;27;20482;-80
2022/07/08 08:43:57;;;;;;;7.60;1.73;;;;;;;21.58;40.51;100277.47;5128455;27;20047;-80
2022/07/08 08:46:25;;;;;;;4.35;0.80;;;;;;;20.69;42.15;100282.06;5133558;27;20043;-79
2022/07/08 08:48:57;;;;;;;6.32;0.93;;;;;;;20.59;41.96;100283.63;5133349;27;20478;-80
2022/07/08 08:51:24;;;;;;;5.70;1.35;;;;;;;19.85;42.46;100285.97;5133696;27;20051;-80
2022/07/08 08:53:53;;;;;;;8.93;1.13;;;;;;;19.76;43.05;100290.84;5132725;27;20054;-79
2022/07/08 08:56:20;;;;;;;10.30;1.50;;;;;;;19.16;44.44;100291.81;5125598;27;20134;-79
2022/07/08 08:58:48;;;;;;;3.63;1.10;;;;;;;19.14;44.54;100293.13;5128699;27;20051;-80
2022/07/08 09:01:16;;;;;;;5.72;0.90;;;;;;;18.70;45.34;100298.19;5133367;27;20047;-80
2022/07/08 09:03:44;;;;;;;3.70;0.90;;;;;;;18.89;44.76;100285.47;5131852;27;20054;-79
2022/07/08 09:06:11;;;;;;;3.70;0.80;;;;;;;19.40;45.29;100286.69;5132869;27;20073;-79
2022/07/08 09:08:38;;;;;;;4.95;1.25;;;;;;;19.84;43.87;100274.06;5133158;27;20051;-80
2022/07/08 09:11:05;;;;;;;3.05;0.68;;;;;;;19.94;42.18;100290.16;5125637;27;20047;-79
2022/07/08 09:13:32;;;;;;;8.00;1.27;;;;;;;20.02;41.57;100300.09;5132145;27;20054;-83
2022/07/08 09:49:32;;;;;;;3.55;1.00;;;;;;;18.95;44.87;100276.38;5132485;27;20405;-81
2022/07/08 09:51:59;;;;;;;3.83;0.90;;;;;;;19.70;42.33;100288.94;5132214;27;20051;-79
2022/07/08 09:54:28;;;;;;;4.60;0.98;;;;;;;20.57;41.88;100294.06;5130799;27;20043;-81
2022/07/08 09:56:59;;;;;;;2.15;0.88;;;;;;;20.43;40.84;100277.56;5129759;27;20537;-80
2022/07/08 09:59:26;;;;;;;3.25;1.23;;;;;;;20.86;39.39;100281.53;5122545;27;20043;-80
2022/07/08 10:01:52;;;;;;;5.50;1.00;;;;;;;21.08;39.73;100279.22;5124660;27;20095;-79
2022/07/08 10:04:19;;;;;;;3.08;0.93;;;;;;;21.38;40.46;100279.31;5125266;27;20055;-78
2022/07/08 10:06:48;;;;;;;6.70;1.20;;;;;;;21.09;39.54;100289.22;5127877;27;20490;-78
2022/07/08 10:09:15;;;;;;;7.82;1.17;;;;;;;20.73;40.54;100295.44;5125733;27;20116;-84
2022/07/08 10:35:25;;;;;;;1.80;0.80;;;;;;;21.36;38.95;100295.31;5118439;27;20046;-80
2022/07/08 10:37:59;;;;;;;8.02;0.80;;;;;;;21.44;38.72;100280.34;5117191;27;20047;-80
2022/07/08 10:40:48;;;;;;;4.63;1.05;;;;;;;21.63;38.80;100283.97;5121154;27;20055;-80
2022/07/08 10:43:26;;;;;;;6.20;1.00;;;;;;;21.61;39.69;100279.75;5121241;27;20051;-81
2022/07/08 10:46:20;;;;;;;5.32;1.00;;;;;;;21.62;40.53;100284.19;5123787;27;20051;-80
2022/07/08 10:48:56;;;;;;;3.03;1.13;;;;;;;21.05;41.17;100287.97;5117889;27;20124;-81
2022/07/08 10:52:02;;;;;;;2.65;1.00;;;;;;;21.10;41.00;100293.63;5113402;27;20099;-82
2022/07/08 10:54:36;;;;;;;3.63;0.90;;;;;;;20.95;40.42;100269.09;5113400;27;20055;-79
2022/07/08 10:57:08;;;;;;;5.32;1.20;;;;;;;21.30;40.15;100289.84;5113381;27;20194;-80
2022/07/08 10:59:37;;;;;;;6.00;0.90;;;;;;;21.24;39.16;100280.53;5117101;27;20055;-80
2022/07/08 11:02:05;;;;;;;2.25;0.90;;;;;;;21.22;39.52;100289.06;5116365;27;20198;-80
2022/07/08 11:04:44;;;;;;;9.98;1.23;;;;;;;21.31;38.85;100275.78;5114932;27;20054;-81
2022/07/08 11:27:25;;;;;;;1.55;0.75;;;;;;;21.68;38.36;100288.81;5121599;27;20058;-82
2022/07/08 11:29:52;;;;;;;2.95;1.02;;;;;;;21.57;38.71;100287.66;5123182;27;20044;-80
2022/07/08 11:32:21;;;;;;;5.95;0.70;;;;;;;21.81;37.29;100288.66;5119593;27;20053;-80
2022/07/08 11:34:49;;;;;;;3.78;1.13;;;;;;;21.84;37.99;100279.88;5119052;27;20043;-80
2022/07/08 11:37:16;;;;;;;3.45;1.00;;;;;;;21.97;37.93;100284.41;5114863;27;20050;-82
2022/07/08 11:39:44;;;;;;;8.95;1.25;;;;;;;22.13;37.69;100271.00;5119514;27;20801;-80
2022/07/08 11:42:11;;;;;;;6.00;0.80;;;;;;;22.39;37.24;100251.25;5115072;27;20047;-80
2022/07/08 11:44:39;;;;;;;3.55;1.00;;;;;;;22.40;37.69;100260.41;5128875;27;20043;-81
2022/07/08 11:47:07;;;;;;;4.45;1.15;;;;;;;22.01;38.30;100257.97;5126224;27;20411;-80
2022/07/08 11:49:40;;;;;;;3.38;0.68;;;;;;;22.27;38.29;100259.50;5114981;27;20056;-80
2022/07/08 11:52:07;;;;;;;5.28;0.90;;;;;;;22.86;36.99;100269.06;5123316;27;20489;-81
2022/07/08 11:54:33;;;;;;;6.80;1.20;;;;;;;22.90;37.69;100270.25;5126058;27;20054;-80
2022/07/08 11:57:01;;;;;;;3.35;0.90;;;;;;;22.71;38.67;100255.69;5124737;27;20049;-77
2022/07/08 11:59:29;;;;;;;4.13;1.00;;;;;;;22.83;37.97;100262.06;5126910;27;20387;-80
2022/07/08 12:01:59;;;;;;;3.47;0.85;;;;;;;22.91;36.03;100253.41;5130217;27;20043;-79
2022/07/08 12:15:27;;;;;;;7.20;1.00;;;;;;;22.82;36.67;100246.50;5113709;28;20043;-81
2022/07/08 12:17:59;;;;;;;3.78;0.75;;;;;;;22.91;35.35;100234.00;5129340;27;20050;-82
2022/07/08 12:20:31;;;;;;;2.47;0.80;;;;;;;23.01;36.10;100233.41;5133945;27;20082;-81
2022/07/08 12:22:58;;;;;;;3.03;1.02;;;;;;;23.33;34.93;100217.25;5133430;27;20046;-80
2022/07/08 12:25:25;;;;;;;4.97;1.00;;;;;;;22.93;36.70;100223.50;5134092;27;20056;-82
2022/07/08 12:27:57;;;;;;;3.92;1.25;;;;;;;22.60;37.54;100204.69;5132546;27;20428;-79
2022/07/08 12:30:26;;;;;;;5.88;1.13;;;;;;;22.56;38.57;100222.88;5129439;27;20051;-80
2022/07/08 12:32:53;;;;;;;3.85;1.10;;;;;;;22.74;37.94;100195.06;5132810;27;20509;-79
2022/07/08 12:35:29;;;;;;;2.42;1.08;;;;;;;23.26;37.23;100230.41;5133755;27;20104;-80
2022/07/08 12:38:04;;;;;;;5.13;1.25;;;;;;;23.16;36.17;100230.16;5130841;27;20055;-80
2022/07/08 12:40:38;;;;;;;3.72;1.05;;;;;;;23.23;36.12;100214.25;5113005;28;20054;-80
2022/07/08 12:43:08;;;;;;;4.75;1.10;;;;;;;23.46;36.10;100229.16;5121705;27;20042;-80
2022/07/08 12:45:35;;;;;;;3.10;0.73;;;;;;;23.44;35.73;100236.88;5133900;27;20047;-80
2022/07/08 12:48:02;;;;;;;3.13;0.75;;;;;;;23.39;36.45;100214.59;5133645;27;20402;-80
2022/07/08 12:50:32;;;;;;;5.85;1.20;;;;;;;23.25;35.67;100227.88;5131437;27;20493;-80
2022/07/08 12:52:59;;;;;;;6.07;1.40;;;;;;;23.07;36.50;100224.09;5121546;27;20391;-81
2022/07/08 12:55:26;;;;;;;3.45;1.02;;;;;;;23.45;37.29;100230.25;5124968;27;20058;-80
2022/07/08 12:57:58;;;;;;;3.20;0.93;;;;;;;23.95;34.23;100226.88;5128326;27;20524;-81
2022/07/08 13:00:24;;;;;;;7.03;1.30;;;;;;;23.56;34.45;100226.63;5131818;27;20126;-80
2022/07/08 13:02:51;;;;;;;5.25;1.05;;;;;;;23.43;34.73;100221.34;5132098;27;20043;-81
2022/07/08 13:05:18;;;;;;;4.75;1.73;;;;;;;23.99;34.43;100221.66;5119900;27;20054;-80
2022/07/08 13:07:46;;;;;;;2.95;0.80;;;;;;;23.75;35.13;100218.94;5127236;27;20376;-80
2022/07/08 13:10:13;;;;;;;8.32;1.02;;;;;;;23.99;34.80;100219.72;5133172;27;20051;-80
2022/07/08 13:12:40;;;;;;;3.17;0.77;;;;;;;24.23;35.18;100213.22;5131668;27;20057;-80
2022/07/08 13:15:08;;;;;;;3.38;0.80;;;;;;;24.33;33.90;100217.03;5133254;27;20043;-82
2022/07/08 13:17:34;;;;;;;4.40;1.10;;;;;;;24.10;34.42;100222.69;5132777;27;20047;-81
2022/07/08 13:20:01;;;;;;;3.95;1.13;;;;;;;23.85;34.57;100212.81;5127949;27;20047;-81
2022/07/08 13:22:27;;;;;;;3.22;1.00;;;;;;;23.92;33.95;100202.41;5132018;27;20414;-82
2022/07/08 13:24:55;;;;;;;3.47;0.90;;;;;;;24.10;34.80;100215.19;5132885;27;20053;-81
2022/07/08 13:27:22;;;;;;;4.50;1.05;;;;;;;24.28;34.23;100200.25;5128363;27;20058;-81
2022/07/08 13:29:48;;;;;;;4.78;0.80;;;;;;;24.02;34.42;100222.00;5132788;27;20531;-81
2022/07/08 13:32:15;;;;;;;3.70;1.08;;;;;;;24.32;34.41;100197.84;5132319;27;20051;-81
2022/07/08 13:34:41;;;;;;;7.38;1.10;;;;;;;24.63;33.59;100195.59;5132610;27;20638;-80
2022/07/08 13:37:08;;;;;;;4.32;0.80;;;;;;;24.92;33.11;100190.78;5123546;27;20043;-81
2022/07/08 13:39:35;;;;;;;6.65;1.25;;;;;;;24.38;33.61;100191.28;5126646;27;20078;-81
2022/07/08 13:42:03;;;;;;;6.38;1.15;;;;;;;24.54;33.70;100206.28;5125695;27;20043;-81
2022/07/08 13:44:30;;;;;;;4.15;0.80;;;;;;;24.12;34.84;100182.47;5124227;27;20150;-81
2022/07/08 13:46:56;;;;;;;7.82;1.13;;;;;;;24.02;33.70;100180.34;5116879;27;20039;-81
2022/07/08 13:49:23;;;;;;;3.72;0.80;;;;;;;24.13;34.79;100161.09;5116800;27;20175;-81
2022/07/08 13:51:50;;;;;;;5.55;0.90;;;;;;;24.85;33.42;100188.16;5113831;27;20051;-80
2022/07/08 13:54:16;;;;;;;2.78;0.98;;;;;;;24.92;33.38;100191.59;5111508;27;20052;-82
2022/07/08 13:56:43;;;;;;;3.05;1.13;;;;;;;24.86;32.80;100200.16;5113998;27;20058;-81
2022/07/08 13:59:11;;;;;;;2.47;0.88;;;;;;;24.87;32.42;100188.78;5118505;27;20256;-80
2022/07/08 14:01:38;;;;;;;5.43;1.33;;;;;;;24.87;33.18;100194.31;5128010;27;20422;-81
2022/07/08 14:04:05;;;;;;;5.30;1.13;;;;;;;24.21;33.60;100177.38;5116405;27;20039;-80
2022/07/08 14:06:34;;;;;;;4.47;1.10;;;;;;;24.07;34.12;100178.75;5120202;27;20055;-80
2022/07/08 14:09:01;;;;;;;2.23;0.90;;;;;;;24.53;34.23;100183.19;5119313;27;20579;-80
2022/07/08 14:11:27;;;;;;;2.95;0.80;;;;;;;24.63;34.08;100165.00;5121947;27;20047;-81
2022/07/08 14:13:54;;;;;;;3.67;0.70;;;;;;;24.63;33.44;100177.00;5121791;27;20069;-80
2022/07/08 14:16:22;;;;;;;3.10;0.75;;;;;;;24.77;33.02;100183.03;5121150;27;20077;-80
2022/07/08 14:18:49;;;;;;;4.20;0.90;;;;;;;25.14;33.36;100179.69;5118663;27;20134;-80
2022/07/08 14:21:16;;;;;;;2.20;1.05;;;;;;;25.17;33.50;100179.19;5119638;27;20043;-80
2022/07/08 14:23:43;;;;;;;1.85;0.75;;;;;;;24.80;33.88;100167.78;5119792;27;20039;-80
2022/07/08 14:26:09;;;;;;;3.58;1.00;;;;;;;24.77;34.09;100180.25;5121296;27;20094;-79
2022/07/08 14:28:36;;;;;;;5.25;1.30;;;;;;;24.74;33.21;100153.81;5121969;27;20055;-80
2022/07/08 14:31:02;;;;;;;8.45;1.55;;;;;;;24.62;32.94;100183.63;5120363;27;20039;-80
2022/07/08 14:33:30;;;;;;;3.78;0.98;;;;;;;24.31;32.79;100180.28;5120974;27;20043;-80
2022/07/08 14:35:59;;;;;;;8.98;1.13;;;;;;;24.52;33.90;100166.75;5112817;27;20040;-81
2022/07/08 14:38:26;;;;;;;5.40;1.23;;;;;;;25.06;33.10;100172.63;5119176;27;20086;-80
2022/07/08 14:40:53;;;;;;;1.42;0.43;;;;;;;25.07;32.45;100152.06;5110954;27;20052;-80
2022/07/08 14:43:20;;;;;;;4.03;1.13;;;;;;;25.42;32.50;100158.38;5127893;27;20360;-80
2022/07/08 14:45:47;;;;;;;3.25;1.02;;;;;;;25.15;33.58;100174.97;5128137;27;20047;-80
2022/07/08 14:48:13;;;;;;;3.42;1.10;;;;;;;24.93;33.35;100167.44;5125145;27;20410;-80
2022/07/08 14:50:41;;;;;;;4.07;1.27;;;;;;;24.83;33.50;100164.50;5128597;27;20050;-80
2022/07/08 14:53:08;;;;;;;2.90;0.98;;;;;;;24.65;33.85;100160.06;5125802;27;20043;-80
2022/07/08 14:55:36;;;;;;;2.20;0.90;;;;;;;24.90;34.72;100167.94;5129099;27;20047;-80
2022/07/08 14:58:02;;;;;;;5.50;1.40;;;;;;;24.95;33.01;100162.44;5131361;28;20130;-80
2022/07/08 15:00:29;;;;;;;3.38;0.90;;;;;;;25.15;32.77;100156.31;5118975;27;20057;-79
2022/07/08 15:02:55;;;;;;;3.72;0.73;;;;;;;25.17;31.76;100140.25;5126713;27;20043;-80
2022/07/08 15:05:22;;;;;;;7.38;1.23;;;;;;;25.34;32.19;100164.41;5133908;27;20536;-80
2022/07/08 15:07:50;;;;;;;4.80;0.80;;;;;;;25.17;31.89;100168.06;5131738;27;20202;-81
2022/07/08 15:10:16;;;;;;;2.90;1.00;;;;;;;25.36;31.87;100163.03;5133377;27;20066;-81
2022/07/08 15:12:43;;;;;;;2.78;1.27;;;;;;;25.89;30.51;100152.22;5126826;27;20051;-79
2022/07/08 15:15:10;;;;;;;4.47;1.00;;;;;;;26.26;31.71;100136.75;5125570;27;20040;-79
2022/07/08 15:17:36;;;;;;;4.45;1.45;;;;;;;26.05;30.57;100127.34;5126750;27;20051;-79
2022/07/08 15:20:03;;;;;;;1.90;0.80;;;;;;;25.90;31.34;100139.16;5133378;27;20075;-79
2022/07/08 15:22:30;;;;;;;5.70;1.00;;;;;;;25.64;31.34;100124.09;5131396;27;20077;-81
2022/07/08 15:24:58;;;;;;;3.85;1.10;;;;;;;25.78;31.35;100142.09;5126493;27;20440;-79
2022/07/08 15:27:24;;;;;;;4.55;1.00;;;;;;;25.87;31.02;100121.00;5132474;27;20087;-78
2022/07/08 15:29:51;;;;;;;2.22;0.90;;;;;;;25.76;31.47;100120.06;5129038;27;20183;-78
2022/07/08 15:32:17;;;;;;;2.08;1.02;;;;;;;25.51;30.89;100122.59;5131886;27;20143;-76
2022/07/08 15:34:44;;;;;;;6.40;1.10;;;;;;;25.39;31.78;100131.91;5134028;27;20131;-77
2022/07/08 15:37:12;;;;;;;4.78;0.93;;;;;;;24.82;32.42;100132.22;5131498;27;20039;-80
2022/07/08 16:03:12;;;;;;;4.05;0.90;;;;;;;25.35;31.43;100130.75;5131115;27;20099;-79
2022/07/08 16:05:39;;;;;;;4.68;1.20;;;;;;;25.18;31.99;100113.25;5134369;27;20054;-79
2022/07/08 16:08:07;;;;;;;7.03;1.17;;;;;;;24.96;32.47;100125.22;5132986;27;20125;-79
2022/07/08 16:10:33;;;;;;;4.03;0.88;;;;;;;25.22;31.84;100109.69;5130371;27;20058;-81
2022/07/08 16:13:00;;;;;;;3.85;1.00;;;;;;;25.52;31.60;100101.97;5120015;27;20047;-78
2022/07/08 16:15:27;;;;;;;3.03;1.05;;;;;;;25.79;30.78;100113.16;5126433;27;20047;-79
2022/07/08 16:17:54;;;;;;;2.08;1.17;;;;;;;25.49;31.12;100114.50;5130126;27;20054;-80
2022/07/08 16:20:22;;;;;;;4.35;0.80;;;;;;;25.44;31.65;100114.41;5131337;27;20598;-79
2022/07/08 16:22:49;;;;;;;7.45;1.10;;;;;;;25.33;31.49;100124.59;5126711;27;20483;-79
2022/07/08 16:25:16;;;;;;;6.57;1.00;;;;;;;25.27;31.92;100125.59;5124646;27;20051;-79
2022/07/08 16:27:46;;;;;;;3.50;0.95;;;;;;;25.32;31.57;100122.91;5129147;27;20047;-79
2022/07/08 16:30:12;;;;;;;;;;;;;;;25.20;31.72;100123.03;5132869;27;20051;-79
2022/07/08 16:32:38;;;;;;;2.95;1.30;;;;;;;24.92;32.51;100116.53;5127343;27;19919;-78
2022/07/08 16:35:06;;;;;;;3.28;1.00;;;;;;;24.81;32.64;100102.72;5114787;27;20388;-79
2022/07/08 16:37:34;;;;;;;2.28;0.70;;;;;;;24.80;32.28;100106.63;5132994;27;20490;-79
2022/07/08 16:40:00;;;;;;;3.25;0.90;;;;;;;24.65;32.68;100113.63;5133319;27;20039;-80
2022/07/08 16:42:27;;;;;;;5.30;1.10;;;;;;;24.51;32.54;100093.66;5132403;27;20133;-79
2022/07/08 16:44:53;;;;;;;3.17;0.80;;;;;;;24.55;33.04;100111.53;5132251;27;20478;-80
2022/07/08 16:47:20;;;;;;;3.67;1.27;;;;;;;24.62;33.52;100119.69;5133589;27;20058;-79
2022/07/08 16:49:47;;;;;;;2.30;1.20;;;;;;;24.97;33.34;100110.19;5124995;27;20048;-79
2022/07/08 16:52:13;;;;;;;3.55;1.15;;;;;;;24.99;32.14;100098.81;5112183;28;20367;-79
2022/07/08 16:54:42;;;;;;;10.85;1.65;;;;;;;25.19;32.66;100096.28;5113250;28;20043;-79
2022/07/08 16:57:08;;;;;;;10.65;2.47;;;;;;;25.25;32.10;100111.94;5115832;27;20455;-79
2022/07/08 16:59:35;;;;;;;4.85;1.05;;;;;;;25.31;32.02;100112.03;5130321;27;20055;-80
2022/07/08 17:02:02;;;;;;;3.85;1.27;;;;;;;25.19;32.53;100107.41;5122446;27;20051;-79
2022/07/08 17:04:28;;;;;;;4.40;1.10;;;;;;;25.46;32.25;100100.22;5132829;27;20043;-79
2022/07/08 17:06:55;;;;;;;4.93;1.15;;;;;;;25.22;32.78;100097.72;5122825;27;20410;-80
2022/07/08 17:09:21;;;;;;;3.45;1.00;;;;;;;25.02;32.63;100089.94;5132422;27;20133;-79
2022/07/08 17:11:49;;;;;;;5.28;1.08;;;;;;;24.80;33.43;100092.72;5123794;27;20051;-79
2022/07/08 17:14:16;;;;;;;6.38;1.08;;;;;;;24.73;33.24;100096.53;5135127;27;20044;-79
2022/07/08 17:16:44;;;;;;;4.60;1.02;;;;;;;24.48;33.57;100082.19;5129976;27;20134;-80
2022/07/08 17:19:11;;;;;;;3.97;0.90;;;;;;;24.59;33.21;100102.69;5132663;27;20140;-80
2022/07/08 17:21:37;;;;;;;6.30;1.17;;;;;;;24.39;33.67;100104.03;5131041;27;20050;-80
2022/07/08 17:24:05;;;;;;;2.58;0.80;;;;;;;24.47;33.52;100100.00;5117357;27;20046;-80
2022/07/08 17:26:32;;;;;;;2.80;0.88;;;;;;;24.21;33.73;100096.81;5128580;27;20086;-79
2022/07/08 17:31:40;;;;;;;4.47;1.00;;;;;;;23.84;34.51;100098.06;5114927;27;20083;-80
2022/07/08 17:34:06;;;;;;;2.53;1.00;;;;;;;23.57;35.15;100102.56;5130790;27;20047;-80
2022/07/08 17:36:33;;;;;;;4.60;0.90;;;;;;;23.47;35.66;100103.19;5124936;27;20051;-80
2022/07/08 17:39:00;;;;;;;1.67;0.65;;;;;;;23.41;36.37;100110.59;5128876;27;20478;-80
2022/07/08 17:41:26;;;;;;;3.38;0.82;;;;;;;23.45;36.05;100110.94;5128496;27;20398;-80
2022/07/08 17:53:59;;;;;;;6.05;1.45;;;;;;;22.97;37.29;100094.41;5122561;27;20125;-79
2022/07/08 17:56:26;;;;;;;6.20;1.15;;;;;;;23.05;36.96;100095.09;5122719;27;20126;-80
2022/07/08 17:58:52;;;;;;;3.08;0.82;;;;;;;22.90;36.87;100088.16;5118039;27;20058;-79
2022/07/08 18:01:20;;;;;;;3.92;0.90;;;;;;;22.82;36.75;100094.06;5127801;27;20039;-80
2022/07/08 18:03:47;;;;;;;5.30;1.00;;;;;;;22.87;37.20;100101.63;5121588;27;20047;-80
2022/07/08 18:06:14;;;;;;;2.95;0.95;;;;;;;22.63;37.49;100096.97;5129666;27;20170;-80
2022/07/08 18:08:40;;;;;;;4.15;0.80;;;;;;;22.71;37.89;100106.84;5128461;27;20368;-80
2022/07/08 18:11:08;;;;;;;2.13;0.82;;;;;;;22.65;38.73;100112.53;5125552;27;20044;-80
2022/07/08 18:13:34;;;;;;;4.38;1.10;;;;;;;22.62;38.19;100105.53;5122727;27;20055;-80
2022/07/08 18:16:01;;;;;;;2.58;0.90;;;;;;;22.68;37.95;100112.88;5124867;27;20489;-79
2022/07/08 18:18:27;;;;;;;1.95;0.63;;;;;;;22.61;38.15;100113.00;5122554;27;20390;-79
2022/07/08 18:20:54;;;;;;;3.80;1.35;;;;;;;22.36;38.27;100098.56;5126642;27;20190;-80
2022/07/08 18:23:21;;;;;;;3.90;1.55;;;;;;;22.38;38.55;100099.16;5122678;27;20047;-80
2022/07/08 18:25:47;;;;;;;6.45;1.25;;;;;;;22.38;38.87;100107.47;5129291;27;20038;-80
2022/07/08 18:28:15;;;;;;;5.32;1.00;;;;;;;22.36;38.60;100109.63;5120855;27;20039;-80
2022/07/08 18:30:42;;;;;;;3.53;1.20;;;;;;;22.10;39.12;100108.97;5130037;27;20053;-79
2022/07/08 18:33:08;;;;;;;7.38;0.98;;;;;;;22.13;39.52;100099.31;5121715;27;20394;-80
2022/07/08 18:35:35;;;;;;;6.53;0.93;;;;;;;22.23;39.59;100107.88;5124579;27;20047;-79
2022/07/08 18:38:02;;;;;;;4.93;1.02;;;;;;;22.14;39.76;100099.09;5125724;27;20050;-79
2022/07/08 18:40:28;;;;;;;2.83;0.90;;;;;;;22.15;39.77;100102.72;5128897;27;20058;-79
2022/07/08 18:42:55;;;;;;;4.18;1.17;;;;;;;22.09;39.44;100098.97;5129573;27;20070;-79
2022/07/08 18:45:22;;;;;;;8.15;1.20;;;;;;;22.15;39.54;100105.47;5124979;27;20054;-80
2022/07/08 18:47:50;;;;;;;2.15;0.90;;;;;;;22.06;40.56;100107.75;5126503;27;20050;-79
2022/07/08 18:50:17;;;;;;;6.40;1.33;;;;;;;22.04;40.32;100105.22;5119878;27;20078;-79
2022/07/08 18:52:44;;;;;;;9.35;1.17;;;;;;;21.92;41.38;100088.59;5125316;27;20067;-79
2022/07/08 18:55:10;;;;;;;2.70;0.80;;;;;;;21.86;41.25;100108.91;5127084;27;20065;-79
2022/07/08 18:57:38;;;;;;;5.95;1.38;;;;;;;21.84;41.75;100108.28;5124488;27;20728;-80
2022/07/08 19:00:05;;;;;;;2.80;0.82;;;;;;;21.84;42.99;100105.50;5124615;27;20482;-79
2022/07/08 19:02:33;;;;;;;1.95;1.27;;;;;;;21.71;42.55;100105.75;5124999;27;20506;-80
2022/07/08 19:05:00;;;;;;;5.10;0.93;;;;;;;21.59;42.60;100104.81;5126638;27;20043;-79
2022/07/08 19:07:26;;;;;;;5.30;1.10;;;;;;;21.58;44.34;100114.22;5117843;27;20055;-79
2022/07/08 19:09:53;;;;;;;2.60;0.70;;;;;;;21.34;46.02;100108.56;5123124;27;20047;-79
2022/07/08 19:12:19;;;;;;;4.05;0.90;;;;;;;21.11;46.55;100114.81;5121153;27;20051;-79
2022/07/08 19:14:46;;;;;;;2.10;0.90;;;;;;;20.80;47.54;100122.16;5127472;27;20047;-79
2022/07/08 19:17:13;;;;;;;5.35;1.00;;;;;;;20.71;48.74;100129.88;5125825;27;20490;-80
2022/07/08 19:19:42;;;;;;;8.90;1.20;;;;;;;20.64;49.46;100126.31;5122332;28;20402;-80
2022/07/08 19:22:09;;;;;;;5.60;1.17;;;;;;;20.33;49.84;100125.34;5124679;27;20051;-79
2022/07/08 19:24:54;;;;;;;1.90;0.70;;;;;;;20.30;50.82;100134.06;5128584;28;20051;-79
2022/07/08 19:27:21;;;;;;;6.15;1.10;;;;;;;20.04;52.90;100129.59;5129234;27;20534;-79
2022/07/08 19:29:47;;;;;;;3.65;0.88;;;;;;;19.82;53.07;100129.97;5123023;28;20081;-79
2022/07/08 19:32:14;;;;;;;6.10;1.25;;;;;;;19.68;53.93;100125.59;5128128;28;20054;-79
2022/07/08 19:34:42;;;;;;;4.15;0.90;;;;;;;19.47;53.05;100135.03;5127479;27;20143;-78
2022/07/08 19:37:09;;;;;;;4.82;1.25;;;;;;;19.42;53.40;100133.78;5118318;27;20063;-79
2022/07/08 19:39:35;;;;;;;6.18;1.20;;;;;;;19.23;53.92;100129.19;5118432;28;20048;-79
2022/07/08 19:42:02;;;;;;;4.90;1.30;;;;;;;19.12;55.46;100140.88;5128515;28;20050;-80
2022/07/08 19:44:28;;;;;;;1.35;1.00;;;;;;;18.85;55.92;100129.94;5128615;28;20526;-79
2022/07/08 19:46:55;;;;;;;8.02;1.58;;;;;;;18.79;56.17;100137.16;5116893;28;20052;-79
2022/07/08 19:49:21;;;;;;;9.48;4.20;;;;;;;18.42;58.30;100134.00;5126335;27;20498;-79
2022/07/08 19:51:49;;;;;;;7.38;2.13;;;;;;;18.48;59.22;100144.16;5131825;27;20051;-79
2022/07/08 19:54:16;;;;;;;6.43;1.55;;;;;;;18.37;60.33;100148.41;5128309;27;20043;-79
2022/07/08 19:56:43;;;;;;;6.63;2.42;;;;;;;18.06;61.75;100154.53;5122570;27;20122;-79
2022/07/08 19:59:09;;;;;;;4.40;1.40;;;;;;;17.96;62.43;100156.84;5126048;27;20440;-79
2022/07/08 20:01:36;;;;;;;3.33;1.30;;;;;;;17.78;63.19;100152.78;5130881;27;20054;-79
2022/07/08 20:04:03;;;;;;;6.88;1.40;;;;;;;17.81;64.43;100151.47;5116366;27;20051;-79
2022/07/08 20:06:29;;;;;;;5.70;1.70;;;;;;;17.67;65.08;100145.97;5122270;27;20058;-79
2022/07/08 20:08:58;;;;;;;3.53;1.92;;;;;;;17.80;65.08;100158.91;5128734;27;20770;-79
2022/07/08 20:11:25;;;;;;;3.15;1.30;;;;;;;17.66;66.16;100143.44;5127447;27;20405;-79
2022/07/08 20:13:52;;;;;;;7.60;1.50;;;;;;;17.57;66.90;100162.03;5130310;27;20542;-80
2022/07/08 20:16:21;;;;;;;3.80;1.92;;;;;;;17.43;66.53;100154.75;5130536;27;20062;-79
2022/07/08 20:18:48;;;;;;;11.13;3.40;;;;;;;17.49;66.69;100159.44;5120118;27;20532;-79